createdAt,value
2023-02-27T00:01:22.083Z,7.65
2023-02-27T00:04:25.276Z,8.05
2023-02-27T00:07:28.929Z,8.73
2023-02-27T00:10:32.103Z,6.95
2023-02-27T00:13:35.738Z,5.85
2023-02-27T00:16:39.177Z,5.78
2023-02-27T00:19:42.096Z,4.35
2023-02-27T00:22:45.816Z,6.53
2023-02-27T00:25:48.782Z,7.37
2023-02-27T00:28:52.250Z,6.10
2023-02-27T00:31:56.413Z,7.20
2023-02-27T00:35:01.807Z,5.78
2023-02-27T00:38:05.059Z,5.75
2023-02-27T00:41:09.405Z,6.07
2023-02-27T00:44:12.861Z,8.50
2023-02-27T00:47:16.141Z,7.80
2023-02-27T00:50:19.281Z,6.68
2023-02-27T00:53:23.043Z,7.45
2023-02-27T00:56:26.056Z,5.87
2023-02-27T00:59:29.218Z,8.75
2023-02-27T01:02:32.223Z,7.18
2023-02-27T01:05:35.743Z,6.62
2023-02-27T01:08:38.758Z,9.00
2023-02-27T01:11:42.014Z,7.20
2023-02-27T01:14:45.153Z,7.70
2023-02-27T01:17:49.924Z,7.43
2023-02-27T01:20:55.538Z,6.70
2023-02-27T01:23:58.847Z,8.32
2023-02-27T01:27:03.004Z,7.78
2023-02-27T01:30:07.141Z,8.80
2023-02-27T01:33:10.446Z,6.03
2023-02-27T01:36:16.272Z,8.05
2023-02-27T01:39:19.171Z,8.65
2023-02-27T01:42:25.184Z,10.80
2023-02-27T01:45:34.730Z,7.37
2023-02-27T01:48:39.543Z,8.90
2023-02-27T01:51:48.797Z,8.03
2023-02-27T01:54:52.895Z,11.27
2023-02-27T01:57:56.457Z,8.35
2023-02-27T02:01:00.201Z,7.45
2023-02-27T02:04:14.377Z,12.35
2023-02-27T02:07:20.047Z,6.93
2023-02-27T02:10:23.286Z,10.57
2023-02-27T02:13:27.793Z,7.22
2023-02-27T02:16:54.767Z,7.82
2023-02-27T02:20:22.564Z,9.07
2023-02-27T02:23:47.229Z,7.00
2023-02-27T02:27:27.008Z,9.10
2023-02-27T02:30:38.833Z,8.80
2023-02-27T02:34:00.457Z,9.48
2023-02-27T02:37:31.215Z,11.15
2023-02-27T02:40:48.976Z,9.48
2023-02-27T02:44:16.612Z,9.93
2023-02-27T02:47:44.575Z,8.43
2023-02-27T02:51:18.924Z,6.07
2023-02-27T02:54:43.662Z,7.65
2023-02-27T02:58:02.198Z,9.65
2023-02-27T03:01:10.256Z,8.20
2023-02-27T03:04:18.883Z,8.82
2023-02-27T03:07:45.905Z,10.10
2023-02-27T03:11:03.990Z,10.63
2023-02-27T03:14:25.081Z,9.57
2023-02-27T03:17:39.368Z,8.40
2023-02-27T03:20:45.960Z,7.47
2023-02-27T03:23:50.457Z,7.10
2023-02-27T03:26:57.300Z,8.98
2023-02-27T03:30:08.976Z,8.25
2023-02-27T03:33:13.873Z,8.85
2023-02-27T03:39:25.452Z,5.70
2023-02-27T03:42:49.639Z,7.65
2023-02-27T03:46:09.727Z,9.87
2023-02-27T03:49:12.900Z,7.87
2023-02-27T03:52:16.167Z,6.90
2023-02-27T03:55:25.892Z,9.65
2023-02-27T03:58:30.231Z,5.97
2023-02-27T04:01:34.158Z,7.12
2023-02-27T04:04:37.494Z,7.87
2023-02-27T04:08:13.167Z,9.07
2023-02-27T04:11:28.661Z,8.65
2023-02-27T04:15:06.729Z,6.93
2023-02-27T04:18:22.440Z,9.00
2023-02-27T04:21:45.308Z,8.85
2023-02-27T04:25:03.182Z,7.82
2023-02-27T04:28:12.271Z,6.40
2023-02-27T04:31:42.787Z,10.60
2023-02-27T04:34:49.744Z,10.45
2023-02-27T04:38:28.348Z,9.80
2023-02-27T04:41:57.713Z,7.80
2023-02-27T04:45:06.940Z,9.98
2023-02-27T04:48:23.647Z,8.25
2023-02-27T04:51:32.431Z,7.55
2023-02-27T04:54:46.106Z,7.95
2023-02-27T04:57:58.917Z,9.40
2023-02-27T05:01:06.372Z,9.98
2023-02-27T05:04:12.656Z,10.00
2023-02-27T05:07:19.369Z,12.20
2023-02-27T05:10:33.601Z,7.90
2023-02-27T05:13:42.672Z,8.75
2023-02-27T05:16:51.099Z,7.72
2023-02-27T05:19:54.158Z,8.63
2023-02-27T05:23:01.360Z,7.80
2023-02-27T05:26:31.965Z,9.48
2023-02-27T05:30:01.635Z,9.70
2023-02-27T05:33:18.886Z,10.63
2023-02-27T05:36:32.891Z,9.35
2023-02-27T05:39:37.476Z,10.55
2023-02-27T05:42:45.514Z,8.70
2023-02-27T05:45:51.205Z,7.72
2023-02-27T05:49:03.494Z,10.80
2023-02-27T05:52:10.738Z,77.60
2023-02-27T05:55:26.757Z,68.45
2023-02-27T06:01:39.938Z,32.00
2023-02-27T06:04:43.234Z,59.60
2023-02-27T06:07:46.180Z,43.58
2023-02-27T06:10:52.128Z,16.50
2023-02-27T06:13:55.263Z,26.98
2023-02-27T06:16:58.540Z,15.48
2023-02-27T06:20:01.454Z,12.63
2023-02-27T06:23:06.760Z,16.95
2023-02-27T06:26:14.321Z,13.57
2023-02-27T06:29:17.676Z,45.20
2023-02-27T06:32:25.278Z,66.78
2023-02-27T06:35:29.595Z,22.23
2023-02-27T06:38:34.152Z,14.18
2023-02-27T06:41:37.399Z,16.23
2023-02-27T06:44:40.741Z,27.33
2023-02-27T06:47:44.702Z,18.20
2023-02-27T06:50:54.392Z,21.62
2023-02-27T06:53:58.359Z,48.25
2023-02-27T06:57:01.584Z,29.83
2023-02-27T07:00:07.277Z,15.95
2023-02-27T07:06:14.040Z,10.93
2023-02-27T07:09:17.017Z,9.70
2023-02-27T07:12:20.266Z,11.63
2023-02-27T07:15:23.261Z,9.50
2023-02-27T07:18:26.496Z,10.90
2023-02-27T07:21:29.493Z,19.08
2023-02-27T07:24:32.771Z,13.48
2023-02-27T07:27:35.776Z,11.63
2023-02-27T07:30:39.290Z,11.48
2023-02-27T07:33:44.585Z,11.88
2023-02-27T07:36:50.575Z,10.60
2023-02-27T07:39:53.532Z,8.57
2023-02-27T07:42:56.968Z,10.80
2023-02-27T07:46:00.009Z,9.10
2023-02-27T07:49:04.972Z,8.52
2023-02-27T07:52:08.494Z,13.00
2023-02-27T07:55:13.587Z,12.57
2023-02-27T08:01:21.092Z,9.52
2023-02-27T08:04:24.445Z,8.55
2023-02-27T08:07:27.515Z,9.68
2023-02-27T08:10:30.842Z,11.45
2023-02-27T08:14:00.025Z,11.35
2023-02-27T08:16:58.143Z,11.12
2023-02-27T08:20:01.946Z,14.10
2023-02-27T08:23:05.227Z,11.30
2023-02-27T08:26:08.523Z,12.60
2023-02-27T08:29:11.698Z,9.32
2023-02-27T08:32:14.917Z,10.82
2023-02-27T08:35:18.253Z,16.25
2023-02-27T08:38:21.332Z,11.18
2023-02-27T08:41:24.827Z,13.60
2023-02-27T08:44:27.976Z,12.98
2023-02-27T08:47:31.759Z,25.37
2023-02-27T08:50:34.677Z,18.65
2023-02-27T08:53:37.998Z,21.70
2023-02-27T08:56:40.982Z,19.08
2023-02-27T08:59:44.353Z,17.12
2023-02-27T09:02:47.413Z,19.87
2023-02-27T09:05:51.440Z,16.27
2023-02-27T09:08:54.477Z,18.05
2023-02-27T09:11:57.797Z,18.80
2023-02-27T09:15:01.076Z,14.65
2023-02-27T09:18:07.056Z,15.23
2023-02-27T09:21:10.172Z,19.10
2023-02-27T09:24:20.467Z,16.90
2023-02-27T09:27:24.118Z,19.58
2023-02-27T09:30:27.929Z,15.38
2023-02-27T09:33:31.577Z,22.45
2023-02-27T09:36:35.143Z,14.75
2023-02-27T09:39:38.112Z,14.30
2023-02-27T09:42:45.629Z,11.82
2023-02-27T09:45:54.504Z,12.75
2023-02-27T09:48:59.621Z,14.30
2023-02-27T09:52:02.887Z,12.07
2023-02-27T09:55:13.484Z,10.07
2023-02-27T09:58:41.414Z,16.70
2023-02-27T10:02:07.162Z,11.30
2023-02-27T10:05:16.552Z,9.38
2023-02-27T10:08:28.271Z,8.52
2023-02-27T10:11:51.663Z,6.75
2023-02-27T10:15:03.168Z,5.35
2023-02-27T10:18:25.583Z,2.90
2023-02-27T10:21:37.513Z,5.10
2023-02-27T10:24:45.348Z,9.25
2023-02-27T10:27:51.305Z,3.28
2023-02-27T10:30:59.640Z,3.00
2023-02-27T10:34:02.751Z,3.60
2023-02-27T10:37:07.995Z,4.10
2023-02-27T10:40:14.469Z,3.83
2023-02-27T10:43:19.907Z,3.08
2023-02-27T10:49:33.622Z,2.10
2023-02-27T10:52:49.162Z,1.77
2023-02-27T10:56:02.191Z,2.97
2023-02-27T10:59:18.192Z,3.30
2023-02-27T11:02:27.093Z,4.40
2023-02-27T11:05:32.872Z,6.32
2023-02-27T11:08:36.365Z,5.00
2023-02-27T11:11:40.000Z,4.72
2023-02-27T11:14:58.371Z,5.40
2023-02-27T11:18:29.447Z,5.78
2023-02-27T11:21:32.688Z,5.55
2023-02-27T11:24:35.791Z,7.00
2023-02-27T11:27:39.418Z,5.55
2023-02-27T11:30:44.192Z,6.65
2023-02-27T11:33:54.931Z,7.05
2023-02-27T11:37:04.078Z,6.03
2023-02-27T11:40:10.740Z,6.55
2023-02-27T11:43:21.455Z,6.03
2023-02-27T11:46:46.369Z,10.52
2023-02-27T11:50:00.843Z,4.53
2023-02-27T11:53:22.855Z,5.37
2023-02-27T11:56:50.890Z,6.00
2023-02-27T12:00:06.701Z,4.40
2023-02-27T12:03:28.983Z,4.43
2023-02-27T12:06:57.696Z,5.70
2023-02-27T12:10:03.386Z,7.65
2023-02-27T12:13:17.997Z,8.07
2023-02-27T12:16:47.149Z,6.05
2023-02-27T12:19:53.685Z,9.02
2023-02-27T12:22:56.733Z,7.70
2023-02-27T12:26:24.042Z,7.05
2023-02-27T12:29:35.701Z,5.40
2023-02-27T12:32:55.126Z,5.90
2023-02-27T12:36:00.578Z,5.45
2023-02-27T12:39:05.196Z,5.75
2023-02-27T12:42:26.956Z,8.38
2023-02-27T12:45:46.366Z,8.85
2023-02-27T12:49:16.051Z,6.10
2023-02-27T12:52:44.326Z,6.47
2023-02-27T12:56:12.322Z,5.12
2023-02-27T13:00:01.001Z,5.10
2023-02-27T13:03:17.889Z,8.48
2023-02-27T13:06:39.914Z,6.10
2023-02-27T13:09:52.186Z,6.60
2023-02-27T13:13:00.879Z,6.18
2023-02-27T13:16:09.897Z,5.03
2023-02-27T13:19:16.137Z,6.30
2023-02-27T13:22:42.257Z,5.50
2023-02-27T13:25:51.092Z,6.57
2023-02-27T13:28:54.602Z,5.20
2023-02-27T13:32:04.904Z,6.57
2023-02-27T13:35:17.966Z,4.87
2023-02-27T13:38:50.426Z,5.90
2023-02-27T13:41:53.423Z,5.87
2023-02-27T13:45:06.402Z,5.93
2023-02-27T13:48:46.357Z,5.82
2023-02-27T13:51:51.229Z,5.57
2023-02-27T13:54:57.264Z,4.80
2023-02-27T13:58:04.425Z,5.93
2023-02-27T14:01:17.220Z,5.40
2023-02-27T14:04:21.276Z,5.32
2023-02-27T14:07:30.489Z,6.05
2023-02-27T14:10:37.220Z,5.80
2023-02-27T14:13:50.094Z,5.32
2023-02-27T14:16:53.813Z,5.70
2023-02-27T14:19:59.296Z,7.78
2023-02-27T14:23:27.763Z,5.85
2023-02-27T14:26:30.838Z,8.20
2023-02-27T14:29:35.389Z,5.10
2023-02-27T14:32:38.537Z,5.65
2023-02-27T14:35:46.325Z,6.85
2023-02-27T14:38:50.795Z,13.45
2023-02-27T14:42:20.340Z,7.12
2023-02-27T14:45:25.226Z,5.18
2023-02-27T14:48:29.124Z,5.57
2023-02-27T14:51:34.978Z,6.05
2023-02-27T14:54:38.314Z,3.92
2023-02-27T14:57:51.960Z,5.70
2023-02-27T15:01:11.607Z,4.32
2023-02-27T15:04:18.575Z,4.57
2023-02-27T15:07:24.904Z,4.60
2023-02-27T15:10:31.237Z,5.55
2023-02-27T15:13:39.642Z,5.68
2023-02-27T15:16:43.091Z,11.57
2023-02-27T15:19:58.359Z,21.02
2023-02-27T15:23:04.414Z,6.07
2023-02-27T15:26:10.577Z,5.97
2023-02-27T15:29:22.284Z,4.30
2023-02-27T15:32:27.984Z,5.00
2023-02-27T15:35:36.013Z,5.82
2023-02-27T15:38:39.291Z,4.62
2023-02-27T15:41:45.128Z,4.50
2023-02-27T15:44:48.728Z,5.30
2023-02-27T15:47:51.876Z,5.78
2023-02-27T15:50:59.526Z,4.90
2023-02-27T15:54:04.519Z,5.43
2023-02-27T15:57:08.636Z,4.30
2023-02-27T16:00:15.458Z,5.53
2023-02-27T16:03:22.650Z,5.32
2023-02-27T16:06:32.539Z,5.57
2023-02-27T16:09:37.779Z,5.20
2023-02-27T16:12:43.292Z,6.53
2023-02-27T16:15:59.309Z,6.22
2023-02-27T16:19:27.085Z,6.25
2023-02-27T16:22:30.766Z,4.40
2023-02-27T16:25:33.920Z,5.50
2023-02-27T16:29:07.330Z,6.10
2023-02-27T16:32:27.949Z,5.60
2023-02-27T16:35:35.484Z,5.90
2023-02-27T16:38:39.314Z,8.00
2023-02-27T16:41:44.325Z,7.68
2023-02-27T16:44:47.575Z,7.00
2023-02-27T16:48:00.230Z,7.25
2023-02-27T16:51:04.287Z,8.32
2023-02-27T16:54:11.225Z,6.87
2023-02-27T16:57:14.493Z,7.85
2023-02-27T17:00:19.835Z,7.80
2023-02-27T17:03:24.716Z,8.73
2023-02-27T17:06:30.581Z,8.17
2023-02-27T17:09:35.746Z,8.95
2023-02-27T17:12:44.211Z,15.75
2023-02-27T17:15:47.777Z,17.17
2023-02-27T17:18:53.091Z,11.65
2023-02-27T17:21:57.720Z,9.57
2023-02-27T17:25:01.506Z,11.75
2023-02-27T17:28:05.897Z,14.18
2023-02-27T17:34:15.560Z,9.30
2023-02-27T17:37:19.323Z,7.70
2023-02-27T17:40:23.231Z,8.52
2023-02-27T17:43:27.658Z,8.05
2023-02-27T17:46:32.211Z,7.28
2023-02-27T17:49:40.679Z,13.62
2023-02-27T17:52:46.100Z,7.05
2023-02-27T17:55:53.789Z,6.68
2023-02-27T17:58:59.908Z,6.40
2023-02-27T18:02:07.438Z,5.62
2023-02-27T18:05:12.742Z,4.78
2023-02-27T18:08:16.641Z,5.45
2023-02-27T18:11:22.562Z,6.05
2023-02-27T18:17:30.602Z,11.48
2023-02-27T18:20:34.195Z,6.50
2023-02-27T18:23:40.873Z,4.47
2023-02-27T18:26:45.610Z,5.35
2023-02-27T18:29:50.682Z,5.68
2023-02-27T18:32:59.375Z,6.15
2023-02-27T18:36:04.205Z,6.65
2023-02-27T18:39:09.202Z,5.62
2023-02-27T18:45:17.028Z,9.55
2023-02-27T18:48:21.479Z,4.97
2023-02-27T18:51:26.581Z,6.03
2023-02-27T18:54:31.212Z,6.43
2023-02-27T18:57:35.781Z,5.55
2023-02-27T19:00:42.085Z,4.50
2023-02-27T19:03:47.508Z,7.12
2023-02-27T19:06:52.376Z,5.30
2023-02-27T19:09:56.858Z,4.53
2023-02-27T19:13:02.992Z,5.15
2023-02-27T19:16:08.668Z,5.25
2023-02-27T19:19:13.857Z,6.20
2023-02-27T19:22:18.671Z,6.37
2023-02-27T19:25:25.325Z,5.47
2023-02-27T19:28:29.538Z,6.12
2023-02-27T19:31:34.364Z,4.82
2023-02-27T19:34:38.763Z,5.20
2023-02-27T19:37:44.068Z,7.47
2023-02-27T19:43:53.356Z,6.68
2023-02-27T19:46:57.970Z,8.25
2023-02-27T19:50:02.764Z,7.60
2023-02-27T19:53:07.250Z,13.32
2023-02-27T19:56:16.695Z,20.37
2023-02-27T19:59:25.295Z,20.10
2023-02-27T20:02:30.573Z,16.30
2023-02-27T20:05:38.863Z,17.02
2023-02-27T20:08:44.665Z,13.88
2023-02-27T20:11:56.896Z,15.32
2023-02-27T20:15:07.676Z,16.33
2023-02-27T20:18:13.217Z,13.52
2023-02-27T20:21:21.841Z,15.75
2023-02-27T20:24:27.937Z,13.38
2023-02-27T20:27:32.740Z,17.27
2023-02-27T20:30:40.997Z,16.95
2023-02-27T20:33:46.549Z,12.98
2023-02-27T20:36:53.037Z,10.45
2023-02-27T20:39:58.750Z,11.32
2023-02-27T20:43:07.101Z,10.13
2023-02-27T20:46:22.977Z,5.80
2023-02-27T20:49:27.647Z,6.10
2023-02-27T20:52:31.164Z,9.55
2023-02-27T20:55:35.159Z,8.23
2023-02-27T20:58:39.491Z,10.48
2023-02-27T21:01:51.722Z,14.77
2023-02-27T21:04:57.771Z,15.73
2023-02-27T21:08:01.912Z,23.27
2023-02-27T21:11:20.797Z,23.77
2023-02-27T21:14:24.140Z,18.92
2023-02-27T21:17:27.475Z,21.27
2023-02-27T21:20:31.312Z,17.52
2023-02-27T21:23:40.272Z,20.40
2023-02-27T21:26:44.301Z,15.25
2023-02-27T21:29:48.862Z,12.77
2023-02-27T21:32:52.455Z,11.20
2023-02-27T21:35:55.586Z,15.48
2023-02-27T21:39:01.334Z,20.05
2023-02-27T21:42:04.753Z,14.00
2023-02-27T21:45:08.580Z,11.90
2023-02-27T21:48:11.973Z,15.30
2023-02-27T21:51:15.283Z,11.25
2023-02-27T21:54:19.229Z,11.10
2023-02-27T21:57:23.131Z,14.68
2023-02-27T22:00:28.714Z,12.48
2023-02-27T22:03:34.546Z,15.18
2023-02-27T22:06:37.510Z,11.40
2023-02-27T22:09:42.100Z,27.92
2023-02-27T22:12:45.079Z,17.02
2023-02-27T22:15:48.859Z,19.05
2023-02-27T22:18:52.048Z,28.17
2023-02-27T22:21:55.446Z,20.75
2023-02-27T22:24:58.510Z,13.85
2023-02-27T22:28:02.002Z,14.55
2023-02-27T22:31:12.560Z,12.65
2023-02-27T22:34:18.710Z,8.73
2023-02-27T22:37:23.240Z,9.23
2023-02-27T22:40:29.622Z,8.15
2023-02-27T22:43:32.820Z,7.82
2023-02-27T22:46:38.586Z,19.02
2023-02-27T22:49:41.737Z,12.73
2023-02-27T22:52:44.903Z,13.02
2023-02-27T22:55:55.498Z,16.42
2023-02-27T22:58:59.323Z,14.07
2023-02-27T23:02:02.380Z,15.45
2023-02-27T23:05:05.946Z,14.40
2023-02-27T23:08:08.863Z,12.15
